sensor_id;sensor_type;location;lat;lon;timestamp;P1;durP1;ratioP1;P2;durP2;ratioP2
673;SDS011;319;48.764;9.174;2023-06-26T00:01:31;6.00;;;5.90;;
673;SDS011;319;48.764;9.174;2023-06-26T00:03:58;17.60;;;17.10;;
673;SDS011;319;48.764;9.174;2023-06-26T00:06:26;11.67;;;11.37;;
673;SDS011;319;48.764;9.174;2023-06-26T00:08:54;12.77;;;12.47;;
673;SDS011;319;48.764;9.174;2023-06-26T00:11:22;11.87;;;11.57;;
673;SDS011;319;48.764;9.174;2023-06-26T00:13:49;11.90;;;11.60;;
673;SDS011;319;48.764;9.174;2023-06-26T00:16:16;11.17;;;10.87;;
673;SDS011;319;48.764;9.174;2023-06-26T00:18:43;0.80;;;0.80;;
673;SDS011;319;48.764;9.174;2023-06-26T00:21:10;0.80;;;0.80;;
673;SDS011;319;48.764;9.174;2023-06-26T00:23:37;0.80;;;0.80;;
673;SDS011;319;48.764;9.174;2023-06-26T00:26:04;0.80;;;0.80;;
673;SDS011;319;48.764;9.174;2023-06-26T00:28:32;0.90;;;0.90;;
673;SDS011;319;48.764;9.174;2023-06-26T00:30:59;0.90;;;0.90;;
673;SDS011;319;48.764;9.174;2023-06-26T00:33:26;7.40;;;7.20;;
673;SDS011;319;48.764;9.174;2023-06-26T00:35:53;7.60;;;7.40;;
673;SDS011;319;48.764;9.174;2023-06-26T00:38:20;8.30;;;8.10;;
673;SDS011;319;48.764;9.174;2023-06-26T00:40:47;7.37;;;7.17;;
673;SDS011;319;48.764;9.174;2023-06-26T00:43:13;7.47;;;7.27;;
673;SDS011;319;48.764;9.174;2023-06-26T00:45:42;7.03;;;6.83;;
673;SDS011;319;48.764;9.174;2023-06-26T00:48:09;7.70;;;7.50;;
673;SDS011;319;48.764;9.174;2023-06-26T00:50:38;8.00;;;7.80;;
673;SDS011;319;48.764;9.174;2023-06-26T00:53:05;8.00;;;7.80;;
673;SDS011;319;48.764;9.174;2023-06-26T00:55:32;7.80;;;7.60;;
673;SDS011;319;48.764;9.174;2023-06-26T00:57:59;6.60;;;6.40;;
673;SDS011;319;48.764;9.174;2023-06-26T01:00:26;5.43;;;5.33;;
673;SDS011;319;48.764;9.174;2023-06-26T01:02:54;6.43;;;6.27;;
673;SDS011;319;48.764;9.174;2023-06-26T01:05:24;6.73;;;6.53;;
673;SDS011;319;48.764;9.174;2023-06-26T01:07:51;6.77;;;6.57;;
673;SDS011;319;48.764;9.174;2023-06-26T01:10:18;6.20;;;6.10;;
673;SDS011;319;48.764;9.174;2023-06-26T01:12:45;0.90;;;0.90;;
673;SDS011;319;48.764;9.174;2023-06-26T01:15:15;0.80;;;0.80;;
673;SDS011;319;48.764;9.174;2023-06-26T01:17:42;0.80;;;0.80;;
673;SDS011;319;48.764;9.174;2023-06-26T01:20:13;0.80;;;0.80;;
673;SDS011;319;48.764;9.174;2023-06-26T01:22:43;0.90;;;0.90;;
673;SDS011;319;48.764;9.174;2023-06-26T01:25:18;0.80;;;0.80;;
673;SDS011;319;48.764;9.174;2023-06-26T01:27:56;0.77;;;0.77;;
673;SDS011;319;48.764;9.174;2023-06-26T01:30:23;0.80;;;0.80;;
673;SDS011;319;48.764;9.174;2023-06-26T01:35:19;0.80;;;0.80;;
673;SDS011;319;48.764;9.174;2023-06-26T01:37:46;0.80;;;0.80;;
673;SDS011;319;48.764;9.174;2023-06-26T01:40:13;0.80;;;0.80;;
673;SDS011;319;48.764;9.174;2023-06-26T01:42:40;0.80;;;0.80;;
673;SDS011;319;48.764;9.174;2023-06-26T01:45:10;0.80;;;0.80;;
673;SDS011;319;48.764;9.174;2023-06-26T01:47:41;0.80;;;0.80;;
673;SDS011;319;48.764;9.174;2023-06-26T01:50:14;0.80;;;0.80;;
673;SDS011;319;48.764;9.174;2023-06-26T01:52:49;0.80;;;0.80;;
673;SDS011;319;48.764;9.174;2023-06-26T01:55:29;0.80;;;0.80;;
673;SDS011;319;48.764;9.174;2023-06-26T01:58:01;0.70;;;0.70;;
673;SDS011;319;48.764;9.174;2023-06-26T02:00:29;0.70;;;0.70;;
673;SDS011;319;48.764;9.174;2023-06-26T02:02:58;0.80;;;0.80;;
673;SDS011;319;48.764;9.174;2023-06-26T02:05:25;0.90;;;0.90;;
673;SDS011;319;48.764;9.174;2023-06-26T02:07:52;0.90;;;0.90;;
673;SDS011;319;48.764;9.174;2023-06-26T02:10:19;0.90;;;0.90;;
673;SDS011;319;48.764;9.174;2023-06-26T02:12:45;1.00;;;1.00;;
673;SDS011;319;48.764;9.174;2023-06-26T02:15:12;0.90;;;0.90;;
673;SDS011;319;48.764;9.174;2023-06-26T02:17:41;1.00;;;1.00;;
673;SDS011;319;48.764;9.174;2023-06-26T02:20:08;1.20;;;1.20;;
673;SDS011;319;48.764;9.174;2023-06-26T02:22:35;1.10;;;1.10;;
673;SDS011;319;48.764;9.174;2023-06-26T02:25:03;1.20;;;1.20;;
673;SDS011;319;48.764;9.174;2023-06-26T02:27:30;1.10;;;1.10;;
673;SDS011;319;48.764;9.174;2023-06-26T02:29:57;1.10;;;1.10;;
673;SDS011;319;48.764;9.174;2023-06-26T02:32:24;1.40;;;1.40;;
673;SDS011;319;48.764;9.174;2023-06-26T02:34:52;1.80;;;1.80;;
673;SDS011;319;48.764;9.174;2023-06-26T02:37:19;1.60;;;1.60;;
673;SDS011;319;48.764;9.174;2023-06-26T02:39:46;1.30;;;1.30;;
673;SDS011;319;48.764;9.174;2023-06-26T02:42:13;1.70;;;1.70;;
673;SDS011;319;48.764;9.174;2023-06-26T02:44:40;1.80;;;1.80;;
673;SDS011;319;48.764;9.174;2023-06-26T02:47:07;2.30;;;2.30;;
673;SDS011;319;48.764;9.174;2023-06-26T02:49:34;1.27;;;1.27;;
673;SDS011;319;48.764;9.174;2023-06-26T02:52:02;1.00;;;1.00;;
673;SDS011;319;48.764;9.174;2023-06-26T02:54:30;1.10;;;1.10;;
673;SDS011;319;48.764;9.174;2023-06-26T02:56:57;1.40;;;1.40;;
673;SDS011;319;48.764;9.174;2023-06-26T02:59:25;1.20;;;1.20;;
673;SDS011;319;48.764;9.174;2023-06-26T03:01:52;2.50;;;2.50;;
673;SDS011;319;48.764;9.174;2023-06-26T03:04:19;2.80;;;2.70;;
673;SDS011;319;48.764;9.174;2023-06-26T03:06:46;3.53;;;3.43;;
673;SDS011;319;48.764;9.174;2023-06-26T03:09:15;3.30;;;3.20;;
673;SDS011;319;48.764;9.174;2023-06-26T03:11:43;2.40;;;2.40;;
673;SDS011;319;48.764;9.174;2023-06-26T03:14:09;3.40;;;3.30;;
673;SDS011;319;48.764;9.174;2023-06-26T03:16:36;3.50;;;3.40;;
673;SDS011;319;48.764;9.174;2023-06-26T03:19:03;3.20;;;3.10;;
673;SDS011;319;48.764;9.174;2023-06-26T03:21:30;3.10;;;3.00;;
673;SDS011;319;48.764;9.174;2023-06-26T03:23:58;3.80;;;3.70;;
673;SDS011;319;48.764;9.174;2023-06-26T03:26:26;3.37;;;3.27;;
673;SDS011;319;48.764;9.174;2023-06-26T03:28:53;2.90;;;2.80;;
673;SDS011;319;48.764;9.174;2023-06-26T03:31:20;3.93;;;3.83;;
673;SDS011;319;48.764;9.174;2023-06-26T03:33:47;4.10;;;4.00;;
673;SDS011;319;48.764;9.174;2023-06-26T03:36:14;3.90;;;3.80;;
673;SDS011;319;48.764;9.174;2023-06-26T03:38:40;4.30;;;4.20;;
673;SDS011;319;48.764;9.174;2023-06-26T03:41:07;3.47;;;3.37;;
673;SDS011;319;48.764;9.174;2023-06-26T03:43:35;4.20;;;4.10;;
673;SDS011;319;48.764;9.174;2023-06-26T03:46:02;4.13;;;4.03;;
673;SDS011;319;48.764;9.174;2023-06-26T03:48:29;11.57;;;11.27;;
673;SDS011;319;48.764;9.174;2023-06-26T03:50:57;13.50;;;13.20;;
673;SDS011;319;48.764;9.174;2023-06-26T03:53:26;11.47;;;11.17;;
673;SDS011;319;48.764;9.174;2023-06-26T03:55:53;8.23;;;8.03;;
673;SDS011;319;48.764;9.174;2023-06-26T03:58:20;11.90;;;11.60;;
673;SDS011;319;48.764;9.174;2023-06-26T04:00:49;7.67;;;7.47;;
673;SDS011;319;48.764;9.174;2023-06-26T04:03:16;13.67;;;13.27;;
673;SDS011;319;48.764;9.174;2023-06-26T04:05:42;14.17;;;13.77;;
673;SDS011;319;48.764;9.174;2023-06-26T04:08:09;13.43;;;13.13;;
673;SDS011;319;48.764;9.174;2023-06-26T04:10:36;12.53;;;12.23;;
673;SDS011;319;48.764;9.174;2023-06-26T04:13:03;12.70;;;12.40;;
673;SDS011;319;48.764;9.174;2023-06-26T04:15:30;13.20;;;12.90;;
673;SDS011;319;48.764;9.174;2023-06-26T04:17:58;10.87;;;10.57;;
673;SDS011;319;48.764;9.174;2023-06-26T04:20:25;14.03;;;13.63;;
673;SDS011;319;48.764;9.174;2023-06-26T04:22:52;15.43;;;15.03;;
673;SDS011;319;48.764;9.174;2023-06-26T04:25:19;12.17;;;11.87;;
673;SDS011;319;48.764;9.174;2023-06-26T04:27:45;11.43;;;11.13;;
673;SDS011;319;48.764;9.174;2023-06-26T04:30:13;12.90;;;12.60;;
673;SDS011;319;48.764;9.174;2023-06-26T04:32:40;14.23;;;13.83;;
673;SDS011;319;48.764;9.174;2023-06-26T04:35:08;12.60;;;12.30;;
673;SDS011;319;48.764;9.174;2023-06-26T04:37:35;14.30;;;13.90;;
673;SDS011;319;48.764;9.174;2023-06-26T04:40:04;18.07;;;17.57;;
673;SDS011;319;48.764;9.174;2023-06-26T04:42:32;18.93;;;18.40;;
673;SDS011;319;48.764;9.174;2023-06-26T04:44:59;16.63;;;16.13;;
673;SDS011;319;48.764;9.174;2023-06-26T04:47:27;15.60;;;15.20;;
673;SDS011;319;48.764;9.174;2023-06-26T04:49:54;1.87;;;1.87;;
673;SDS011;319;48.764;9.174;2023-06-26T04:52:22;0.97;;;0.97;;
673;SDS011;319;48.764;9.174;2023-06-26T04:54:49;0.70;;;0.70;;
673;SDS011;319;48.764;9.174;2023-06-26T04:57:16;0.70;;;0.70;;
673;SDS011;319;48.764;9.174;2023-06-26T04:59:43;0.80;;;0.80;;
673;SDS011;319;48.764;9.174;2023-06-26T05:02:10;0.80;;;0.80;;
673;SDS011;319;48.764;9.174;2023-06-26T05:04:39;2.90;;;2.80;;
673;SDS011;319;48.764;9.174;2023-06-26T05:07:07;6.13;;;5.97;;
673;SDS011;319;48.764;9.174;2023-06-26T05:09:35;1.57;;;1.57;;
673;SDS011;319;48.764;9.174;2023-06-26T05:12:02;0.80;;;0.80;;
673;SDS011;319;48.764;9.174;2023-06-26T05:14:30;1.90;;;1.90;;
673;SDS011;319;48.764;9.174;2023-06-26T05:16:57;0.70;;;0.70;;
673;SDS011;319;48.764;9.174;2023-06-26T05:19:23;0.90;;;0.90;;
673;SDS011;319;48.764;9.174;2023-06-26T05:21:51;3.20;;;3.10;;
673;SDS011;319;48.764;9.174;2023-06-26T05:24:19;0.80;;;0.80;;
673;SDS011;319;48.764;9.174;2023-06-26T05:26:51;0.80;;;0.80;;
673;SDS011;319;48.764;9.174;2023-06-26T05:32:46;0.80;;;0.80;;
673;SDS011;319;48.764;9.174;2023-06-26T05:35:14;0.73;;;0.73;;
673;SDS011;319;48.764;9.174;2023-06-26T05:37:42;0.80;;;0.80;;
673;SDS011;319;48.764;9.174;2023-06-26T05:40:10;0.80;;;0.80;;
673;SDS011;319;48.764;9.174;2023-06-26T05:42:39;0.93;;;0.93;;
673;SDS011;319;48.764;9.174;2023-06-26T05:45:07;0.80;;;0.80;;
673;SDS011;319;48.764;9.174;2023-06-26T05:47:35;0.80;;;0.80;;
673;SDS011;319;48.764;9.174;2023-06-26T05:50:02;0.70;;;0.70;;
673;SDS011;319;48.764;9.174;2023-06-26T05:52:30;0.80;;;0.80;;
673;SDS011;319;48.764;9.174;2023-06-26T05:54:57;0.70;;;0.70;;
673;SDS011;319;48.764;9.174;2023-06-26T05:57:25;0.87;;;0.87;;
673;SDS011;319;48.764;9.174;2023-06-26T05:59:55;0.70;;;0.70;;
673;SDS011;319;48.764;9.174;2023-06-26T06:02:23;9.20;;;9.00;;
673;SDS011;319;48.764;9.174;2023-06-26T06:04:50;9.30;;;9.10;;
673;SDS011;319;48.764;9.174;2023-06-26T06:07:16;0.80;;;0.80;;
673;SDS011;319;48.764;9.174;2023-06-26T06:09:43;3.80;;;3.70;;
673;SDS011;319;48.764;9.174;2023-06-26T06:12:10;0.97;;;0.97;;
673;SDS011;319;48.764;9.174;2023-06-26T06:14:37;1.80;;;1.80;;
673;SDS011;319;48.764;9.174;2023-06-26T06:17:05;3.33;;;3.23;;
673;SDS011;319;48.764;9.174;2023-06-26T06:19:32;1.10;;;1.10;;
673;SDS011;319;48.764;9.174;2023-06-26T06:21:59;0.70;;;0.70;;
673;SDS011;319;48.764;9.174;2023-06-26T06:24:26;0.75;;;0.75;;
673;SDS011;319;48.764;9.174;2023-06-26T06:26:52;0.80;;;0.80;;
673;SDS011;319;48.764;9.174;2023-06-26T06:29:19;0.77;;;0.77;;
673;SDS011;319;48.764;9.174;2023-06-26T06:31:46;0.70;;;0.70;;
673;SDS011;319;48.764;9.174;2023-06-26T06:34:15;0.80;;;0.80;;
673;SDS011;319;48.764;9.174;2023-06-26T06:36:42;0.80;;;0.80;;
673;SDS011;319;48.764;9.174;2023-06-26T06:39:09;0.90;;;0.90;;
673;SDS011;319;48.764;9.174;2023-06-26T06:41:36;0.90;;;0.90;;
673;SDS011;319;48.764;9.174;2023-06-26T06:44:03;0.93;;;0.93;;
673;SDS011;319;48.764;9.174;2023-06-26T06:46:30;0.95;;;0.95;;
673;SDS011;319;48.764;9.174;2023-06-26T06:48:57;0.90;;;0.90;;
673;SDS011;319;48.764;9.174;2023-06-26T06:51:26;0.90;;;0.90;;
673;SDS011;319;48.764;9.174;2023-06-26T06:53:53;0.90;;;0.90;;
673;SDS011;319;48.764;9.174;2023-06-26T06:56:20;0.90;;;0.90;;
673;SDS011;319;48.764;9.174;2023-06-26T06:58:47;0.90;;;0.90;;
673;SDS011;319;48.764;9.174;2023-06-26T07:01:14;0.88;;;0.88;;
673;SDS011;319;48.764;9.174;2023-06-26T07:03:40;0.90;;;0.90;;
673;SDS011;319;48.764;9.174;2023-06-26T07:06:07;1.10;;;1.10;;
673;SDS011;319;48.764;9.174;2023-06-26T07:08:35;0.90;;;0.90;;
673;SDS011;319;48.764;9.174;2023-06-26T07:11:02;0.80;;;0.80;;
673;SDS011;319;48.764;9.174;2023-06-26T07:13:29;0.88;;;0.88;;
673;SDS011;319;48.764;9.174;2023-06-26T07:15:56;0.90;;;0.90;;
673;SDS011;319;48.764;9.174;2023-06-26T07:18:23;0.90;;;0.90;;
673;SDS011;319;48.764;9.174;2023-06-26T07:20:50;0.90;;;0.90;;
673;SDS011;319;48.764;9.174;2023-06-26T07:23:17;0.90;;;0.90;;
673;SDS011;319;48.764;9.174;2023-06-26T07:25:45;0.80;;;0.80;;
673;SDS011;319;48.764;9.174;2023-06-26T07:28:12;0.80;;;0.80;;
673;SDS011;319;48.764;9.174;2023-06-26T07:30:42;0.80;;;0.80;;
673;SDS011;319;48.764;9.174;2023-06-26T07:33:09;0.90;;;0.90;;
673;SDS011;319;48.764;9.174;2023-06-26T07:35:36;0.90;;;0.90;;
673;SDS011;319;48.764;9.174;2023-06-26T07:38:03;0.95;;;0.95;;
673;SDS011;319;48.764;9.174;2023-06-26T07:40:29;0.90;;;0.90;;
673;SDS011;319;48.764;9.174;2023-06-26T07:42:58;0.90;;;0.90;;
673;SDS011;319;48.764;9.174;2023-06-26T07:45:35;1.00;;;1.00;;
673;SDS011;319;48.764;9.174;2023-06-26T07:48:02;0.90;;;0.90;;
673;SDS011;319;48.764;9.174;2023-06-26T07:50:29;0.90;;;0.90;;
673;SDS011;319;48.764;9.174;2023-06-26T07:52:56;0.80;;;0.80;;
673;SDS011;319;48.764;9.174;2023-06-26T07:55:23;0.80;;;0.80;;
673;SDS011;319;48.764;9.174;2023-06-26T07:57:51;0.73;;;0.73;;
673;SDS011;319;48.764;9.174;2023-06-26T08:00:21;1.00;;;1.00;;
673;SDS011;319;48.764;9.174;2023-06-26T08:02:48;0.90;;;0.90;;
673;SDS011;319;48.764;9.174;2023-06-26T08:05:16;1.00;;;1.00;;
673;SDS011;319;48.764;9.174;2023-06-26T08:07:46;0.90;;;0.90;;
673;SDS011;319;48.764;9.174;2023-06-26T08:10:13;0.80;;;0.80;;
673;SDS011;319;48.764;9.174;2023-06-26T08:12:40;0.75;;;0.75;;
673;SDS011;319;48.764;9.174;2023-06-26T08:15:10;0.80;;;0.80;;
673;SDS011;319;48.764;9.174;2023-06-26T08:17:38;0.82;;;0.82;;
673;SDS011;319;48.764;9.174;2023-06-26T08:20:05;0.90;;;0.90;;
673;SDS011;319;48.764;9.174;2023-06-26T08:22:34;0.90;;;0.90;;
673;SDS011;319;48.764;9.174;2023-06-26T08:25:01;0.88;;;0.88;;
673;SDS011;319;48.764;9.174;2023-06-26T08:27:28;0.75;;;0.75;;
673;SDS011;319;48.764;9.174;2023-06-26T08:29:55;0.80;;;0.80;;
673;SDS011;319;48.764;9.174;2023-06-26T08:32:22;0.77;;;0.77;;
673;SDS011;319;48.764;9.174;2023-06-26T08:34:54;0.80;;;0.80;;
673;SDS011;319;48.764;9.174;2023-06-26T08:37:24;0.90;;;0.90;;
673;SDS011;319;48.764;9.174;2023-06-26T08:39:51;0.80;;;0.80;;
673;SDS011;319;48.764;9.174;2023-06-26T08:42:18;0.90;;;0.90;;
673;SDS011;319;48.764;9.174;2023-06-26T08:44:45;0.90;;;0.90;;
673;SDS011;319;48.764;9.174;2023-06-26T08:47:12;0.80;;;0.80;;
673;SDS011;319;48.764;9.174;2023-06-26T08:49:42;0.77;;;0.77;;
673;SDS011;319;48.764;9.174;2023-06-26T08:52:17;0.70;;;0.70;;
673;SDS011;319;48.764;9.174;2023-06-26T08:54:49;0.77;;;0.77;;
673;SDS011;319;48.764;9.174;2023-06-26T08:57:22;0.80;;;0.80;;
673;SDS011;319;48.764;9.174;2023-06-26T08:59:51;0.80;;;0.80;;
673;SDS011;319;48.764;9.174;2023-06-26T09:02:18;0.90;;;0.90;;
673;SDS011;319;48.764;9.174;2023-06-26T09:04:46;0.80;;;0.80;;
673;SDS011;319;48.764;9.174;2023-06-26T09:07:14;0.68;;;0.68;;
673;SDS011;319;48.764;9.174;2023-06-26T09:09:42;0.73;;;0.73;;
673;SDS011;319;48.764;9.174;2023-06-26T09:12:09;0.75;;;0.75;;
673;SDS011;319;48.764;9.174;2023-06-26T09:14:36;0.73;;;0.73;;
673;SDS011;319;48.764;9.174;2023-06-26T09:17:03;0.70;;;0.70;;
673;SDS011;319;48.764;9.174;2023-06-26T09:19:30;0.70;;;0.70;;
673;SDS011;319;48.764;9.174;2023-06-26T09:21:57;0.68;;;0.68;;
673;SDS011;319;48.764;9.174;2023-06-26T09:24:25;0.70;;;0.70;;
673;SDS011;319;48.764;9.174;2023-06-26T09:26:52;0.70;;;0.70;;
673;SDS011;319;48.764;9.174;2023-06-26T09:29:20;0.73;;;0.73;;
673;SDS011;319;48.764;9.174;2023-06-26T09:31:47;0.82;;;0.82;;
673;SDS011;319;48.764;9.174;2023-06-26T09:34:14;4.25;;;4.15;;
673;SDS011;319;48.764;9.174;2023-06-26T09:36:41;4.93;;;4.82;;
673;SDS011;319;48.764;9.174;2023-06-26T09:39:11;4.82;;;4.72;;
673;SDS011;319;48.764;9.174;2023-06-26T09:41:41;1.05;;;1.05;;
673;SDS011;319;48.764;9.174;2023-06-26T09:44:10;0.80;;;0.80;;
673;SDS011;319;48.764;9.174;2023-06-26T09:46:39;4.40;;;4.30;;
673;SDS011;319;48.764;9.174;2023-06-26T09:49:06;6.95;;;6.75;;
673;SDS011;319;48.764;9.174;2023-06-26T09:51:36;1.45;;;1.45;;
673;SDS011;319;48.764;9.174;2023-06-26T09:54:04;1.85;;;1.85;;
673;SDS011;319;48.764;9.174;2023-06-26T09:56:32;8.02;;;7.82;;
673;SDS011;319;48.764;9.174;2023-06-26T09:59:02;6.45;;;6.25;;
673;SDS011;319;48.764;9.174;2023-06-26T10:01:30;0.73;;;0.73;;
673;SDS011;319;48.764;9.174;2023-06-26T10:03:57;0.70;;;0.70;;
673;SDS011;319;48.764;9.174;2023-06-26T10:06:26;0.70;;;0.70;;
673;SDS011;319;48.764;9.174;2023-06-26T10:08:55;0.70;;;0.70;;
673;SDS011;319;48.764;9.174;2023-06-26T10:11:24;0.70;;;0.70;;
673;SDS011;319;48.764;9.174;2023-06-26T10:13:53;0.70;;;0.70;;
673;SDS011;319;48.764;9.174;2023-06-26T10:16:25;0.70;;;0.70;;
673;SDS011;319;48.764;9.174;2023-06-26T10:18:56;0.70;;;0.70;;
673;SDS011;319;48.764;9.174;2023-06-26T10:21:28;0.70;;;0.70;;
673;SDS011;319;48.764;9.174;2023-06-26T10:23:57;0.80;;;0.80;;
673;SDS011;319;48.764;9.174;2023-06-26T10:26:25;0.70;;;0.70;;
673;SDS011;319;48.764;9.174;2023-06-26T10:28:54;0.70;;;0.70;;
673;SDS011;319;48.764;9.174;2023-06-26T10:31:23;0.70;;;0.70;;
673;SDS011;319;48.764;9.174;2023-06-26T10:33:55;0.87;;;0.87;;
673;SDS011;319;48.764;9.174;2023-06-26T10:36:26;0.70;;;0.70;;
673;SDS011;319;48.764;9.174;2023-06-26T10:38:55;0.60;;;0.60;;
673;SDS011;319;48.764;9.174;2023-06-26T10:41:23;0.70;;;0.70;;
673;SDS011;319;48.764;9.174;2023-06-26T10:43:52;4.30;;;4.20;;
673;SDS011;319;48.764;9.174;2023-06-26T10:46:49;0.70;;;0.70;;
673;SDS011;319;48.764;9.174;2023-06-26T10:49:17;0.70;;;0.70;;
673;SDS011;319;48.764;9.174;2023-06-26T10:51:48;0.80;;;0.80;;
673;SDS011;319;48.764;9.174;2023-06-26T10:54:16;0.70;;;0.70;;
673;SDS011;319;48.764;9.174;2023-06-26T10:56:44;0.70;;;0.70;;
673;SDS011;319;48.764;9.174;2023-06-26T10:59:13;0.70;;;0.70;;
673;SDS011;319;48.764;9.174;2023-06-26T11:01:42;0.70;;;0.70;;
673;SDS011;319;48.764;9.174;2023-06-26T11:04:12;0.60;;;0.60;;
673;SDS011;319;48.764;9.174;2023-06-26T11:06:41;0.70;;;0.70;;
673;SDS011;319;48.764;9.174;2023-06-26T11:09:14;0.70;;;0.70;;
673;SDS011;319;48.764;9.174;2023-06-26T11:11:57;0.70;;;0.70;;
673;SDS011;319;48.764;9.174;2023-06-26T11:14:30;3.03;;;2.93;;
673;SDS011;319;48.764;9.174;2023-06-26T11:16:58;3.70;;;3.60;;
673;SDS011;319;48.764;9.174;2023-06-26T11:19:29;4.00;;;3.90;;
673;SDS011;319;48.764;9.174;2023-06-26T11:22:01;5.17;;;5.07;;
673;SDS011;319;48.764;9.174;2023-06-26T11:24:29;0.70;;;0.70;;
673;SDS011;319;48.764;9.174;2023-06-26T11:26:59;0.70;;;0.70;;
673;SDS011;319;48.764;9.174;2023-06-26T11:29:28;0.70;;;0.70;;
673;SDS011;319;48.764;9.174;2023-06-26T11:31:59;0.70;;;0.70;;
673;SDS011;319;48.764;9.174;2023-06-26T11:34:30;0.70;;;0.70;;
673;SDS011;319;48.764;9.174;2023-06-26T11:36:58;0.70;;;0.70;;
673;SDS011;319;48.764;9.174;2023-06-26T11:39:28;0.70;;;0.70;;
673;SDS011;319;48.764;9.174;2023-06-26T11:41:55;0.70;;;0.70;;
673;SDS011;319;48.764;9.174;2023-06-26T11:44:22;0.70;;;0.70;;
673;SDS011;319;48.764;9.174;2023-06-26T11:46:52;0.70;;;0.70;;
673;SDS011;319;48.764;9.174;2023-06-26T11:49:20;0.70;;;0.70;;
673;SDS011;319;48.764;9.174;2023-06-26T11:51:53;0.60;;;0.60;;
673;SDS011;319;48.764;9.174;2023-06-26T11:54:23;0.70;;;0.70;;
673;SDS011;319;48.764;9.174;2023-06-26T11:56:54;0.70;;;0.70;;
673;SDS011;319;48.764;9.174;2023-06-26T11:59:22;0.70;;;0.70;;
673;SDS011;319;48.764;9.174;2023-06-26T12:01:50;2.83;;;2.73;;
673;SDS011;319;48.764;9.174;2023-06-26T12:04:18;0.70;;;0.70;;
673;SDS011;319;48.764;9.174;2023-06-26T12:06:46;5.20;;;5.10;;
673;SDS011;319;48.764;9.174;2023-06-26T12:09:16;5.20;;;5.10;;
673;SDS011;319;48.764;9.174;2023-06-26T12:11:46;4.20;;;4.10;;
673;SDS011;319;48.764;9.174;2023-06-26T12:14:14;3.87;;;3.77;;
673;SDS011;319;48.764;9.174;2023-06-26T12:16:43;3.50;;;3.40;;
673;SDS011;319;48.764;9.174;2023-06-26T12:19:10;3.90;;;3.80;;
673;SDS011;319;48.764;9.174;2023-06-26T12:21:45;1.10;;;1.10;;
673;SDS011;319;48.764;9.174;2023-06-26T12:24:19;0.70;;;0.70;;
673;SDS011;319;48.764;9.174;2023-06-26T12:26:49;0.70;;;0.70;;
673;SDS011;319;48.764;9.174;2023-06-26T12:29:19;0.70;;;0.70;;
673;SDS011;319;48.764;9.174;2023-06-26T12:31:48;0.70;;;0.70;;
673;SDS011;319;48.764;9.174;2023-06-26T12:34:18;0.70;;;0.70;;
673;SDS011;319;48.764;9.174;2023-06-26T12:36:46;0.70;;;0.70;;
673;SDS011;319;48.764;9.174;2023-06-26T12:39:15;0.60;;;0.60;;
673;SDS011;319;48.764;9.174;2023-06-26T12:41:48;0.60;;;0.60;;
673;SDS011;319;48.764;9.174;2023-06-26T12:44:21;0.90;;;0.90;;
673;SDS011;319;48.764;9.174;2023-06-26T12:46:53;0.70;;;0.70;;
673;SDS011;319;48.764;9.174;2023-06-26T12:49:28;0.70;;;0.70;;
673;SDS011;319;48.764;9.174;2023-06-26T12:51:57;0.70;;;0.70;;
673;SDS011;319;48.764;9.174;2023-06-26T12:54:24;0.70;;;0.70;;
673;SDS011;319;48.764;9.174;2023-06-26T12:56:53;0.70;;;0.70;;
673;SDS011;319;48.764;9.174;2023-06-26T12:59:20;0.70;;;0.70;;
673;SDS011;319;48.764;9.174;2023-06-26T13:01:47;0.70;;;0.70;;
673;SDS011;319;48.764;9.174;2023-06-26T13:04:14;0.70;;;0.70;;
673;SDS011;319;48.764;9.174;2023-06-26T13:06:41;0.70;;;0.70;;
673;SDS011;319;48.764;9.174;2023-06-26T13:09:08;0.70;;;0.70;;
673;SDS011;319;48.764;9.174;2023-06-26T13:11:36;0.60;;;0.60;;
673;SDS011;319;48.764;9.174;2023-06-26T13:14:04;0.60;;;0.60;;
673;SDS011;319;48.764;9.174;2023-06-26T13:16:31;0.70;;;0.70;;
673;SDS011;319;48.764;9.174;2023-06-26T13:18:59;0.70;;;0.70;;
673;SDS011;319;48.764;9.174;2023-06-26T13:21:26;0.70;;;0.70;;
673;SDS011;319;48.764;9.174;2023-06-26T13:23:53;4.33;;;4.23;;
673;SDS011;319;48.764;9.174;2023-06-26T13:26:20;7.20;;;7.00;;
673;SDS011;319;48.764;9.174;2023-06-26T13:28:48;5.90;;;5.80;;
673;SDS011;319;48.764;9.174;2023-06-26T13:31:16;5.50;;;5.40;;
673;SDS011;319;48.764;9.174;2023-06-26T13:33:43;5.63;;;5.53;;
673;SDS011;319;48.764;9.174;2023-06-26T13:36:11;4.20;;;4.10;;
673;SDS011;319;48.764;9.174;2023-06-26T13:38:38;5.60;;;5.50;;
673;SDS011;319;48.764;9.174;2023-06-26T13:41:05;3.47;;;3.37;;
673;SDS011;319;48.764;9.174;2023-06-26T13:43:33;10.10;;;9.80;;
673;SDS011;319;48.764;9.174;2023-06-26T13:46:03;4.27;;;4.17;;
673;SDS011;319;48.764;9.174;2023-06-26T13:48:32;1.80;;;1.80;;
673;SDS011;319;48.764;9.174;2023-06-26T13:51:02;9.60;;;9.40;;
673;SDS011;319;48.764;9.174;2023-06-26T13:53:30;9.00;;;8.80;;
673;SDS011;319;48.764;9.174;2023-06-26T13:55:57;9.70;;;9.03;;
673;SDS011;319;48.764;9.174;2023-06-26T13:58:24;4.60;;;4.50;;
673;SDS011;319;48.764;9.174;2023-06-26T14:00:52;7.27;;;7.07;;
673;SDS011;319;48.764;9.174;2023-06-26T14:03:19;9.20;;;9.00;;
673;SDS011;319;48.764;9.174;2023-06-26T14:05:47;7.93;;;7.73;;
673;SDS011;319;48.764;9.174;2023-06-26T14:08:16;9.47;;;9.27;;
673;SDS011;319;48.764;9.174;2023-06-26T14:10:45;7.77;;;7.57;;
673;SDS011;319;48.764;9.174;2023-06-26T14:13:12;7.10;;;6.90;;
673;SDS011;319;48.764;9.174;2023-06-26T14:15:41;7.50;;;7.30;;
673;SDS011;319;48.764;9.174;2023-06-26T14:18:13;4.17;;;4.07;;
673;SDS011;319;48.764;9.174;2023-06-26T14:20:40;3.33;;;3.23;;
673;SDS011;319;48.764;9.174;2023-06-26T14:23:08;3.10;;;3.00;;
673;SDS011;319;48.764;9.174;2023-06-26T14:25:35;2.40;;;2.40;;
673;SDS011;319;48.764;9.174;2023-06-26T14:28:02;2.87;;;2.77;;
673;SDS011;319;48.764;9.174;2023-06-26T14:30:29;2.60;;;2.50;;
673;SDS011;319;48.764;9.174;2023-06-26T14:32:56;1.67;;;1.67;;
673;SDS011;319;48.764;9.174;2023-06-26T14:35:23;1.00;;;1.00;;
673;SDS011;319;48.764;9.174;2023-06-26T14:37:49;1.20;;;1.20;;
673;SDS011;319;48.764;9.174;2023-06-26T14:40:19;1.53;;;1.53;;
673;SDS011;319;48.764;9.174;2023-06-26T14:42:46;6.67;;;6.47;;
673;SDS011;319;48.764;9.174;2023-06-26T14:45:12;7.10;;;6.90;;
673;SDS011;319;48.764;9.174;2023-06-26T14:47:39;9.30;;;9.10;;
673;SDS011;319;48.764;9.174;2023-06-26T14:50:07;0.70;;;0.70;;
673;SDS011;319;48.764;9.174;2023-06-26T14:52:35;0.73;;;0.73;;
673;SDS011;319;48.764;9.174;2023-06-26T14:55:02;0.70;;;0.70;;
673;SDS011;319;48.764;9.174;2023-06-26T14:57:30;10.17;;;9.87;;
673;SDS011;319;48.764;9.174;2023-06-26T14:59:57;3.17;;;3.07;;
673;SDS011;319;48.764;9.174;2023-06-26T15:02:24;2.60;;;2.50;;
673;SDS011;319;48.764;9.174;2023-06-26T15:04:52;12.30;;;12.00;;
673;SDS011;319;48.764;9.174;2023-06-26T15:07:18;1.80;;;1.80;;
673;SDS011;319;48.764;9.174;2023-06-26T15:09:45;8.40;;;8.20;;
673;SDS011;319;48.764;9.174;2023-06-26T15:12:12;7.70;;;7.50;;
673;SDS011;319;48.764;9.174;2023-06-26T15:14:41;1.60;;;1.60;;
673;SDS011;319;48.764;9.174;2023-06-26T15:17:07;1.70;;;1.70;;
673;SDS011;319;48.764;9.174;2023-06-26T15:19:35;7.53;;;7.33;;
673;SDS011;319;48.764;9.174;2023-06-26T15:22:03;7.93;;;7.73;;
673;SDS011;319;48.764;9.174;2023-06-26T15:24:31;2.03;;;2.03;;
673;SDS011;319;48.764;9.174;2023-06-26T15:26:58;10.40;;;10.10;;
673;SDS011;319;48.764;9.174;2023-06-26T15:29:25;8.50;;;8.30;;
673;SDS011;319;48.764;9.174;2023-06-26T15:31:53;5.57;;;5.47;;
673;SDS011;319;48.764;9.174;2023-06-26T15:34:20;11.90;;;11.60;;
673;SDS011;319;48.764;9.174;2023-06-26T15:36:47;11.40;;;11.10;;
673;SDS011;319;48.764;9.174;2023-06-26T15:39:15;7.97;;;7.77;;
673;SDS011;319;48.764;9.174;2023-06-26T15:41:42;8.30;;;8.10;;
673;SDS011;319;48.764;9.174;2023-06-26T15:44:09;8.20;;;8.00;;
673;SDS011;319;48.764;9.174;2023-06-26T15:46:36;11.40;;;11.10;;
673;SDS011;319;48.764;9.174;2023-06-26T15:49:04;12.70;;;12.20;;
673;SDS011;319;48.764;9.174;2023-06-26T15:51:31;10.47;;;10.17;;
673;SDS011;319;48.764;9.174;2023-06-26T15:54:00;11.03;;;10.73;;